Time;durP1;ratioP1;P1;durP2;ratioP2;P2;SDS_P1;SDS_P2;PMS_P1;PMS_P2;Temp;Humidity;BMP_temperature;BMP_pressure;BME280_temperature;BME280_humidity;BME280_pressure;Samples;Min_cycle;Max_cycle;Signal;HPM_P1;HPM_P2
2022/08/30 00:02:19;;;;;;;11.73;10.93;;;;;;;23.17;72.17;101022.56;5036599;28;102399;-50
2022/08/30 00:04:47;;;;;;;13.00;11.93;;;;;;;23.18;72.53;101024.19;5035307;27;103962;-50
2022/08/30 00:07:13;;;;;;;11.88;10.98;;;;;;;23.18;72.40;101023.38;5036307;27;102014;-50
2022/08/30 00:09:40;;;;;;;13.07;12.15;;;;;;;23.16;72.34;101026.50;5032349;27;102216;-50
2022/08/30 00:12:07;;;;;;;12.48;11.57;;;;;;;23.17;72.56;101021.75;5016301;28;102146;-50
2022/08/30 00:14:34;;;;;;;11.63;10.63;;;;;;;23.16;72.34;101026.50;5015251;28;103968;-50
2022/08/30 00:17:01;;;;;;;12.07;11.18;;;;;;;23.16;72.57;101025.69;5034844;27;101901;-50
2022/08/30 00:19:29;;;;;;;11.40;10.50;;;;;;;23.15;72.57;101030.44;5035318;27;102517;-50
2022/08/30 00:21:55;;;;;;;11.80;10.77;;;;;;;23.14;72.53;101028.81;5036886;27;102491;-50
2022/08/30 00:24:22;;;;;;;12.35;11.35;;;;;;;23.15;72.53;101029.63;5034330;27;103924;-50
2022/08/30 00:26:48;;;;;;;12.25;11.45;;;;;;;23.16;72.48;101026.50;5035677;27;102331;-50
2022/08/30 00:29:15;;;;;;;11.85;11.00;;;;;;;23.17;72.53;101027.31;5034596;27;102239;-50
2022/08/30 00:31:41;;;;;;;11.65;10.85;;;;;;;23.16;72.52;101020.97;5031389;27;102194;-50
2022/08/30 00:34:08;;;;;;;11.75;10.95;;;;;;;23.15;72.48;101022.13;5025935;27;103877;-50
2022/08/30 00:36:36;;;;;;;12.77;11.75;;;;;;;23.16;72.52;101026.50;5034936;27;101977;-50
2022/08/30 00:39:03;;;;;;;11.70;10.80;;;;;;;23.16;72.54;101020.97;5014366;27;102364;-50
2022/08/30 00:41:30;;;;;;;13.70;12.67;;;;;;;23.16;72.38;101026.50;5019137;27;102217;-50
2022/08/30 00:43:58;;;;;;;11.20;10.32;;;;;;;23.15;72.52;101026.84;5021374;28;104053;-50
2022/08/30 00:46:24;;;;;;;12.35;11.48;;;;;;;23.15;72.58;101027.69;5035271;27;102236;-50
2022/08/30 00:48:51;;;;;;;11.90;11.00;;;;;;;23.16;72.50;101031.25;5034803;27;102043;-50
2022/08/30 00:51:20;;;;;;;12.25;11.32;;;;;;;23.16;72.39;101026.50;5035906;27;102218;-50
2022/08/30 00:53:49;;;;;;;;;;;;;;;23.16;72.60;101032.06;5026440;27;103829;-50
2022/08/30 00:56:17;;;;;;;10.38;9.57;;;;;;;23.15;72.48;101026.84;5015426;28;102236;-50
2022/08/30 00:58:47;;;;;;;12.00;11.20;;;;;;;23.15;72.69;101029.63;5014942;28;102417;-50
2022/08/30 01:01:14;;;;;;;12.27;11.38;;;;;;;23.15;72.62;101024.06;5015872;28;102291;-50
2022/08/30 01:03:43;;;;;;;13.07;12.02;;;;;;;23.15;72.45;101024.91;5013898;28;103808;-50
2022/08/30 01:06:11;;;;;;;11.70;10.70;;;;;;;23.16;72.29;101022.94;5025126;28;102364;-53
2022/08/30 01:08:38;;;;;;;11.95;11.05;;;;;;;23.13;72.39;101021.66;5033919;27;102710;-50
2022/08/30 01:11:07;;;;;;;11.85;11.05;;;;;;;23.14;72.67;101016.91;5036201;27;102179;-50
2022/08/30 01:13:34;;;;;;;12.82;11.88;;;;;;;23.14;72.38;101017.72;5034161;27;103927;-50
2022/08/30 01:16:03;;;;;;;11.68;10.88;;;;;;;23.15;72.28;101018.50;5035039;27;102278;-50
2022/08/30 01:18:30;;;;;;;11.63;10.90;;;;;;;23.12;72.59;101014.50;5034561;27;102501;-50
2022/08/30 01:21:05;;;;;;;11.02;10.23;;;;;;;23.10;72.20;101016.78;5035371;27;102307;-50
2022/08/30 01:23:36;;;;;;;11.13;10.32;;;;;;;23.13;72.54;101016.09;5033403;27;103873;-50
2022/08/30 01:26:04;;;;;;;12.18;11.38;;;;;;;23.12;72.56;101008.94;5016603;27;103917;-50
2022/08/30 01:28:32;;;;;;;12.35;11.25;;;;;;;23.13;72.40;101016.09;5014408;28;102402;-50
2022/08/30 01:31:00;;;;;;;11.38;10.25;;;;;;;23.14;72.49;101011.34;5031460;28;102193;-50
2022/08/30 01:33:26;;;;;;;11.57;10.77;;;;;;;23.13;72.91;101018.06;5033246;27;104014;-50
2022/08/30 01:35:55;;;;;;;10.90;10.07;;;;;;;23.14;72.90;101012.16;5034855;27;102313;-50
2022/08/30 01:38:26;;;;;;;11.68;10.88;;;;;;;23.15;72.54;101012.97;5033135;27;102297;-50
2022/08/30 01:40:58;;;;;;;13.63;12.63;;;;;;;23.12;72.62;101010.91;5034259;27;102323;-50
2022/08/30 01:43:26;;;;;;;10.68;10.00;;;;;;;23.13;72.27;101016.09;5033947;27;103866;-50
2022/08/30 01:45:53;;;;;;;13.10;11.83;;;;;;;23.12;72.54;101008.13;5033301;27;102333;-51
2022/08/30 01:48:20;;;;;;;12.65;11.80;;;;;;;23.12;72.43;101017.25;5034706;27;102243;-50
2022/08/30 01:50:47;;;;;;;12.60;11.73;;;;;;;23.11;72.73;101006.50;5035520;27;102226;-50
2022/08/30 01:53:13;;;;;;;11.82;11.02;;;;;;;23.12;72.71;101014.50;5033637;27;104023;-50
2022/08/30 02:05:49;;;;;;;12.27;11.27;;;;;;;23.12;72.71;101008.13;5017349;27;107955;-50
2022/08/30 02:08:15;;;;;;;12.57;11.52;;;;;;;23.12;72.73;101011.72;5017635;28;102219;-50
2022/08/30 02:10:42;;;;;;;12.32;11.18;;;;;;;23.13;72.76;101010.53;5017061;28;102323;-50
2022/08/30 02:13:08;;;;;;;11.70;10.70;;;;;;;23.12;72.58;101008.13;5018645;28;103122;-50
2022/08/30 02:15:35;;;;;;;12.27;11.20;;;;;;;23.13;72.86;101016.09;5033013;27;103901;-50
2022/08/30 02:18:01;;;;;;;13.07;11.55;;;;;;;23.12;72.64;101017.25;5037585;27;102090;-50
2022/08/30 02:20:28;;;;;;;13.10;11.85;;;;;;;23.12;72.54;101008.94;5036925;27;102432;-50
2022/08/30 02:22:56;;;;;;;14.85;13.45;;;;;;;23.12;72.56;101014.50;5029000;27;102428;-50
2022/08/30 02:25:23;;;;;;;14.27;13.18;;;;;;;23.12;72.54;101013.69;5032856;27;104167;-51
2022/08/30 02:27:49;;;;;;;12.43;11.52;;;;;;;23.12;72.66;101014.50;5037734;27;102027;-50
2022/08/30 02:30:16;;;;;;;13.20;12.18;;;;;;;23.10;72.19;101011.25;5025543;27;102297;-50
2022/08/30 02:32:42;;;;;;;15.05;13.27;;;;;;;23.12;72.71;101014.50;5036087;27;102602;-50
2022/08/30 02:35:09;;;;;;;12.75;11.85;;;;;;;23.12;72.52;101013.69;5036537;27;103873;-50
2022/08/30 02:37:36;;;;;;;13.23;12.13;;;;;;;23.12;72.82;101019.25;5017200;27;102386;-50
2022/08/30 02:40:06;;;;;;;12.57;11.50;;;;;;;23.11;72.54;101018.41;5016301;28;102159;-50
2022/08/30 02:42:33;;;;;;;11.93;10.90;;;;;;;23.10;72.70;101016.78;5017293;28;102244;-50
2022/08/30 02:44:59;;;;;;;13.20;12.15;;;;;;;23.11;72.61;101007.28;5016310;28;104009;-50
2022/08/30 02:47:25;;;;;;;12.55;11.75;;;;;;;23.11;72.64;101017.59;5017234;28;101971;-50
2022/08/30 02:49:52;;;;;;;13.45;12.35;;;;;;;23.10;72.70;101033.44;5035357;27;102379;-50
2022/08/30 02:52:18;;;;;;;14.00;12.80;;;;;;;23.12;72.46;101033.91;5037724;27;102456;-50
2022/08/30 02:54:45;;;;;;;12.93;11.98;;;;;;;23.12;72.57;101035.91;5036182;27;103939;-50
2022/08/30 02:57:13;;;;;;;13.20;12.30;;;;;;;23.10;72.38;101039.00;5036981;27;102197;-50
2022/08/30 02:59:42;;;;;;;14.50;13.40;;;;;;;23.11;72.72;101051.72;5027320;27;102639;-50
2022/08/30 03:02:09;;;;;;;13.10;12.10;;;;;;;23.11;72.52;101046.16;5017738;28;102754;-50
2022/08/30 03:04:38;;;;;;;13.38;12.38;;;;;;;23.11;72.53;101043.38;5029338;27;103873;-50
2022/08/30 03:07:04;;;;;;;13.18;12.30;;;;;;;23.13;72.50;101049.41;5031003;27;102374;-50
2022/08/30 03:09:31;;;;;;;13.70;12.68;;;;;;;23.12;72.64;101052.56;5016208;28;102329;-50
2022/08/30 03:11:57;;;;;;;12.55;11.65;;;;;;;23.12;72.71;101047.81;5017093;28;102567;-50
2022/08/30 03:14:26;;;;;;;13.63;12.63;;;;;;;23.12;72.75;101061.69;5015818;28;104192;-50
2022/08/30 03:16:53;;;;;;;12.88;12.07;;;;;;;23.12;72.73;101056.13;5016456;28;104194;-50
2022/08/30 03:19:20;;;;;;;12.98;11.98;;;;;;;23.12;72.77;101064.47;5016125;28;102628;-50
2022/08/30 03:21:46;;;;;;;14.52;13.52;;;;;;;23.12;72.71;101066.44;5017882;28;102187;-50
2022/08/30 03:24:13;;;;;;;13.95;13.05;;;;;;;23.11;72.70;101065.59;5023689;27;103962;-50
2022/08/30 03:26:40;;;;;;;13.50;12.30;;;;;;;23.12;72.70;101074.75;5016581;28;102182;-50
2022/08/30 03:29:06;;;;;;;12.02;11.18;;;;;;;23.11;72.72;101073.94;5028548;28;102204;-50
2022/08/30 03:31:35;;;;;;;13.68;12.65;;;;;;;23.10;72.81;101083.41;5035750;27;102746;-50
2022/08/30 03:34:02;;;;;;;13.43;12.43;;;;;;;23.12;72.72;101074.75;5015674;28;104213;-50
2022/08/30 03:36:29;;;;;;;12.85;11.98;;;;;;;23.11;72.78;101068.38;5016308;28;102375;-51
2022/08/30 03:38:55;;;;;;;12.18;11.27;;;;;;;23.11;72.55;101057.25;5018265;28;102270;-50
2022/08/30 03:41:23;;;;;;;12.77;11.88;;;;;;;23.12;72.64;101069.22;5038901;27;102491;-50
2022/08/30 03:43:50;;;;;;;12.27;11.40;;;;;;;23.11;72.63;101070.34;5015586;28;103899;-50
2022/08/30 03:46:17;;;;;;;14.67;13.57;;;;;;;23.12;72.83;101074.75;5015962;28;102251;-50
2022/08/30 03:48:46;;;;;;;12.52;11.73;;;;;;;23.12;72.76;101070.00;5015515;28;102649;-50
2022/08/30 03:51:12;;;;;;;13.80;12.70;;;;;;;23.12;72.62;101075.56;5016127;28;102146;-50
2022/08/30 03:53:39;;;;;;;12.07;11.18;;;;;;;23.10;72.81;101072.31;5017904;28;103922;-50
2022/08/30 03:56:06;;;;;;;11.75;10.90;;;;;;;23.12;72.81;101070.00;5021002;27;102387;-50
2022/08/30 03:58:33;;;;;;;12.52;11.52;;;;;;;23.11;72.73;101073.94;5035365;27;102278;-50
2022/08/30 04:00:59;;;;;;;12.63;11.63;;;;;;;23.10;72.86;101072.31;5016958;27;102385;-50
2022/08/30 04:03:26;;;;;;;11.88;10.98;;;;;;;23.11;72.86;101073.94;5027073;27;104035;-50
2022/08/30 04:05:54;;;;;;;12.45;11.55;;;;;;;23.11;72.85;101067.56;5035286;27;102237;-51
2022/08/30 04:08:22;;;;;;;13.50;12.50;;;;;;;23.10;72.88;101077.88;5035537;27;102226;-50
2022/08/30 04:10:49;;;;;;;11.18;10.38;;;;;;;23.11;72.85;101062.81;5036589;27;102040;-50
2022/08/30 04:13:16;;;;;;;12.80;11.90;;;;;;;23.11;72.78;101068.38;5034676;27;103883;-50
2022/08/30 04:15:42;;;;;;;12.00;11.20;;;;;;;23.12;72.71;101061.69;5035324;27;102207;-50
2022/08/30 04:18:09;;;;;;;12.85;12.02;;;;;;;23.11;72.85;101068.38;5033601;27;102510;-50
2022/08/30 04:20:36;;;;;;;13.02;12.10;;;;;;;23.11;72.89;101062.00;5035716;27;102120;-50
2022/08/30 04:23:06;;;;;;;13.38;12.32;;;;;;;23.12;72.81;101071.97;5034366;27;103991;-50
2022/08/30 04:25:33;;;;;;;13.65;12.65;;;;;;;23.12;73.00;101070.00;5023770;27;102021;-50
2022/08/30 04:28:00;;;;;;;12.48;11.43;;;;;;;23.12;72.77;101063.66;5035342;27;102302;-51
2022/08/30 04:30:27;;;;;;;11.23;10.38;;;;;;;23.11;73.08;101062.81;5036149;27;102110;-50
2022/08/30 04:32:54;;;;;;;12.77;11.88;;;;;;;23.13;72.71;101066.06;5034507;27;103968;-50
2022/08/30 04:35:21;;;;;;;12.85;11.85;;;;;;;23.14;72.77;101061.31;5035153;27;102447;-50
2022/08/30 04:37:47;;;;;;;13.15;12.07;;;;;;;23.13;72.75;101065.25;5034766;27;102329;-50
2022/08/30 04:40:15;;;;;;;11.43;10.52;;;;;;;23.13;72.78;101066.06;5040338;27;102304;-50
2022/08/30 04:42:46;;;;;;;12.60;11.60;;;;;;;23.13;72.78;101071.63;5048336;27;104048;-50
2022/08/30 04:45:15;;;;;;;12.05;11.15;;;;;;;23.12;72.75;101070.00;5014684;28;102203;-50
2022/08/30 04:47:41;;;;;;;;;;;;;;;23.15;72.81;101072.09;5024159;27;102320;-50
2022/08/30 04:50:10;;;;;;;10.35;9.65;;;;;;;23.13;72.80;101068.84;5035742;27;102322;-50
2022/08/30 04:52:38;;;;;;;10.98;10.18;;;;;;;23.14;72.63;101070.47;5034581;27;104850;-50
2022/08/30 04:55:05;;;;;;;11.13;10.43;;;;;;;23.14;72.54;101078.78;5028795;27;102008;-50
2022/08/30 04:57:33;;;;;;;12.60;11.70;;;;;;;23.14;72.63;101073.22;5017664;27;102391;-50
2022/08/30 05:00:00;;;;;;;11.80;10.90;;;;;;;23.14;72.73;101073.22;5025442;27;102469;-50
2022/08/30 05:02:27;;;;;;;12.15;11.25;;;;;;;23.14;72.68;101073.22;5023228;27;104011;-50
2022/08/30 05:07:39;;;;;;;11.57;10.77;;;;;;;23.15;72.72;101080.44;5014571;28;102411;-50
2022/08/30 05:10:07;;;;;;;12.43;11.52;;;;;;;23.16;72.69;101075.69;5015691;28;102367;-50
2022/08/30 05:12:34;;;;;;;11.82;11.05;;;;;;;23.16;72.63;101076.47;5023295;28;103961;-50
2022/08/30 05:15:03;;;;;;;11.23;10.43;;;;;;;23.15;72.54;101080.44;5017188;27;102171;-50
2022/08/30 05:17:30;;;;;;;10.70;10.00;;;;;;;23.16;72.58;101084.81;5020355;28;102667;-50
2022/08/30 05:19:56;;;;;;;12.55;11.65;;;;;;;23.18;72.51;101085.25;5036193;27;102656;-50
2022/08/30 05:22:23;;;;;;;12.15;11.35;;;;;;;23.19;72.52;101092.44;5034686;27;104095;-50
2022/08/30 05:24:49;;;;;;;12.88;11.98;;;;;;;23.20;72.59;101085.72;5023865;27;101950;-50
2022/08/30 05:27:16;;;;;;;12.43;11.63;;;;;;;23.22;72.66;101090.94;5015871;28;102439;-51
2022/08/30 05:29:44;;;;;;;12.80;11.93;;;;;;;23.21;72.72;101084.56;5018488;28;102561;-50
2022/08/30 05:32:12;;;;;;;12.48;11.68;;;;;;;23.23;72.46;101090.59;5018638;28;104023;-50
2022/08/30 05:34:38;;;;;;;12.90;12.10;;;;;;;23.23;72.57;101087.81;5019471;28;102139;-50
2022/08/30 05:37:05;;;;;;;12.73;11.88;;;;;;;23.25;72.58;101090.22;5019288;28;101874;-50
2022/08/30 05:39:31;;;;;;;12.02;11.25;;;;;;;23.25;72.33;101096.59;5036100;27;102200;-50
2022/08/30 05:41:58;;;;;;;12.90;12.00;;;;;;;23.26;72.52;101097.41;5022483;27;103576;-50
2022/08/30 05:44:25;;;;;;;12.77;11.88;;;;;;;23.29;72.70;101095.91;5018751;28;102063;-50
2022/08/30 05:46:53;;;;;;;11.57;10.80;;;;;;;23.29;72.38;101093.94;5018737;28;102338;-50
2022/08/30 05:49:19;;;;;;;10.97;10.23;;;;;;;23.32;72.58;101097.97;5020243;28;102132;-50
2022/08/30 05:51:46;;;;;;;12.50;11.70;;;;;;;23.32;72.26;101081.31;5027497;28;104131;-50
2022/08/30 05:54:14;;;;;;;12.63;11.73;;;;;;;23.33;72.46;101091.25;5038515;27;102254;-50
2022/08/30 05:56:44;;;;;;;11.50;10.80;;;;;;;23.35;72.42;101094.50;5038576;27;101909;-50
2022/08/30 05:59:11;;;;;;;11.73;10.95;;;;;;;23.37;72.35;101103.28;5029277;27;102754;-50
2022/08/30 06:01:42;;;;;;;11.95;11.15;;;;;;;23.37;72.35;101100.50;5018708;28;103985;-50
2022/08/30 06:04:11;;;;;;;11.75;10.95;;;;;;;23.38;72.34;101107.72;5019480;28;101953;-50
2022/08/30 06:06:39;;;;;;;11.60;10.85;;;;;;;23.38;72.40;101105.72;5018091;28;102016;-52
2022/08/30 06:09:08;;;;;;;11.20;10.40;;;;;;;23.40;72.18;101100.63;5037245;27;102495;-49
2022/08/30 06:11:35;;;;;;;11.40;10.68;;;;;;;23.40;72.40;101108.16;5037608;27;103834;-50
2022/08/30 06:14:03;;;;;;;11.15;10.48;;;;;;;23.41;72.23;101112.56;5019078;28;102187;-50
2022/08/30 06:16:30;;;;;;;11.73;10.93;;;;;;;23.42;72.32;101111.41;5020666;27;102009;-50
2022/08/30 06:18:58;;;;;;;11.90;11.10;;;;;;;23.43;72.18;101113.00;5039474;27;102653;-51
2022/08/30 06:21:30;;;;;;;11.13;10.43;;;;;;;23.43;72.13;101115.78;5038130;27;104099;-50
2022/08/30 06:23:57;;;;;;;12.57;11.63;;;;;;;23.43;72.16;101113.00;5038096;27;101976;-50
2022/08/30 06:26:24;;;;;;;12.23;11.43;;;;;;;23.45;72.15;101110.72;5038291;27;101894;-50
2022/08/30 06:28:51;;;;;;;10.93;10.25;;;;;;;23.45;71.96;101113.47;5022066;27;102326;-51
2022/08/30 06:31:19;;;;;;;11.90;10.90;;;;;;;23.45;72.23;101105.97;5038178;27;104125;-50
2022/08/30 06:33:47;;;;;;;12.63;11.77;;;;;;;23.47;71.81;101113.94;5041329;27;102334;-51
2022/08/30 06:36:16;;;;;;;11.15;10.40;;;;;;;23.48;71.91;101115.56;5032695;27;102115;-51
2022/08/30 06:38:49;;;;;;;10.90;10.20;;;;;;;23.49;71.98;101111.63;5026701;27;102096;-50
2022/08/30 06:41:18;;;;;;;12.02;11.25;;;;;;;23.48;71.98;101104.47;5041776;27;103858;-51
2022/08/30 06:43:45;;;;;;;16.77;11.85;;;;;;;23.79;72.37;101103.81;5020633;27;102156;-50
2022/08/30 06:46:14;;;;;;;14.80;13.10;;;;;;;23.71;72.14;101102.81;5025700;27;102110;-50
2022/08/30 06:48:41;;;;;;;14.63;11.80;;;;;;;23.65;71.86;101109.72;5026017;27;104464;-50
2022/08/30 06:51:08;;;;;;;14.23;12.65;;;;;;;23.62;71.99;101104.91;5026906;27;104330;-50
2022/08/30 06:53:35;;;;;;;14.27;13.02;;;;;;;23.62;71.67;101110.44;5017985;27;101881;-50
2022/08/30 06:56:08;;;;;;;13.38;12.15;;;;;;;23.61;71.66;101103.25;5017976;28;102170;-50
2022/08/30 06:58:37;;;;;;;13.05;11.35;;;;;;;23.64;71.86;101105.34;5029725;27;102196;-50
2022/08/30 07:01:04;;;;;;;12.40;11.38;;;;;;;23.64;71.63;101108.13;5037649;27;104182;-50
2022/08/30 07:03:31;;;;;;;14.23;13.07;;;;;;;23.65;71.66;101106.16;5020609;27;102025;-50
2022/08/30 07:05:58;;;;;;;12.68;11.60;;;;;;;23.65;71.71;101106.16;5017349;28;102170;-50
2022/08/30 07:08:26;;;;;;;12.68;11.45;;;;;;;23.65;71.74;101104.16;5018711;28;102172;-50
2022/08/30 07:10:53;;;;;;;14.05;13.00;;;;;;;23.65;71.70;101103.38;5016902;28;104075;-50
2022/08/30 07:13:22;;;;;;;14.23;13.00;;;;;;;23.65;71.88;101109.72;5017732;28;101915;-50
2022/08/30 07:15:50;;;;;;;13.02;12.18;;;;;;;23.66;71.72;101111.38;5017770;28;102123;-51
2022/08/30 07:21:07;;;;;;;13.80;12.80;;;;;;;23.68;71.80;101106.28;5017448;28;103966;-50
2022/08/30 07:23:34;;;;;;;12.40;11.60;;;;;;;23.67;71.54;101115.78;5037069;27;101859;-50
2022/08/30 07:26:03;;;;;;;12.10;11.10;;;;;;;23.69;71.45;101116.25;5023249;27;102170;-50
2022/08/30 07:28:31;;;;;;;12.80;11.93;;;;;;;23.69;71.23;101107.91;5018528;28;101982;-50
2022/08/30 07:30:57;;;;;;;13.95;12.93;;;;;;;23.71;71.51;101110.34;5016984;28;104272;-50
2022/08/30 07:33:24;;;;;;;13.73;12.80;;;;;;;23.73;71.33;101110.81;5018109;28;102110;-51
2022/08/30 07:35:51;;;;;;;13.02;11.82;;;;;;;23.74;71.24;101113.22;5017029;28;101946;-51
2022/08/30 07:38:17;;;;;;;13.95;12.57;;;;;;;23.74;71.35;101099.31;5018362;28;102657;-50
2022/08/30 07:40:44;;;;;;;13.77;12.68;;;;;;;23.74;71.31;101107.66;5033675;27;104007;-50
2022/08/30 07:43:10;;;;;;;13.50;12.57;;;;;;;23.77;71.39;101116.47;5017166;28;102041;-50
2022/08/30 07:45:39;;;;;;;12.98;11.98;;;;;;;23.77;71.22;101110.91;5016767;28;102321;-50
2022/08/30 07:48:06;;;;;;;12.93;11.93;;;;;;;23.78;71.29;101109.75;5018205;28;102272;-50
2022/08/30 07:50:33;;;;;;;14.57;12.98;;;;;;;23.80;71.21;101110.19;5016266;28;103927;-50
2022/08/30 07:52:59;;;;;;;14.32;13.07;;;;;;;23.81;71.15;101111.81;5016833;28;102033;-50
2022/08/30 07:55:26;;;;;;;14.25;13.07;;;;;;;23.79;71.36;101106.59;5017278;28;102476;-50
2022/08/30 07:57:53;;;;;;;14.05;13.13;;;;;;;23.80;71.22;101115.75;5035537;27;102485;-50
2022/08/30 08:00:20;;;;;;;12.32;11.32;;;;;;;23.80;71.15;101111.03;5036832;27;103848;-50
2022/08/30 08:02:47;;;;;;;13.10;12.27;;;;;;;23.82;71.05;101113.44;5019325;27;102199;-50
2022/08/30 08:05:15;;;;;;;12.67;11.47;;;;;;;23.83;70.83;101115.03;5023727;27;102279;-49
2022/08/30 08:07:43;;;;;;;13.05;12.00;;;;;;;23.83;70.92;101115.03;5038062;27;102071;-50
2022/08/30 08:10:10;;;;;;;14.23;12.93;;;;;;;23.83;70.88;101109.47;5036674;27;104453;-50
2022/08/30 08:12:38;;;;;;;12.60;11.60;;;;;;;23.83;70.76;101099.16;5036649;27;102183;-50
2022/08/30 08:15:05;;;;;;;12.65;11.68;;;;;;;23.84;70.93;101105.53;5036775;27;102053;-50
2022/08/30 08:17:32;;;;;;;12.77;11.93;;;;;;;23.83;70.94;101104.72;5037955;27;102284;-50
2022/08/30 08:20:00;;;;;;;14.35;13.30;;;;;;;23.84;70.63;101099.97;5036317;27;103979;-50
2022/08/30 08:22:27;;;;;;;12.85;12.10;;;;;;;23.84;70.91;101099.97;5037470;27;102370;-50
2022/08/30 08:24:53;;;;;;;11.82;11.13;;;;;;;23.84;70.91;101099.97;5036662;27;101913;-50
2022/08/30 08:27:20;;;;;;;13.20;12.38;;;;;;;23.84;70.93;101105.53;5037318;27;102065;-50
2022/08/30 08:29:46;;;;;;;12.68;11.73;;;;;;;23.84;70.79;101100.81;5036098;27;103974;-50
2022/08/30 08:32:13;;;;;;;12.70;11.80;;;;;;;23.85;70.82;101098.84;5036127;27;102117;-50
2022/08/30 08:34:40;;;;;;;12.35;11.38;;;;;;;23.85;70.89;101096.88;5036458;27;102187;-50
2022/08/30 08:37:08;;;;;;;12.88;11.93;;;;;;;23.86;70.54;101098.47;5036771;27;102241;-50
2022/08/30 08:39:34;;;;;;;13.07;12.03;;;;;;;23.89;70.67;101094.19;5036517;27;103987;-50
2022/08/30 08:42:11;;;;;;;13.55;12.52;;;;;;;23.88;70.52;101090.59;5023372;27;101895;-50
2022/08/30 08:44:53;;;;;;;12.57;11.68;;;;;;;23.87;70.71;101093.72;5015788;28;101871;-51
2022/08/30 08:47:24;;;;;;;12.52;11.52;;;;;;;23.86;70.90;101087.34;5017577;28;102241;-51
2022/08/30 08:49:56;;;;;;;12.45;11.60;;;;;;;23.86;70.96;101086.56;5015700;28;103425;-50
2022/08/30 08:55:21;;;;;;;10.70;10.00;;;;;;;23.86;70.85;101094.88;5015992;28;101925;-51
2022/08/30 08:57:48;;;;;;;13.25;12.35;;;;;;;23.85;70.82;101090.50;5017086;28;102338;-51
2022/08/30 09:00:15;;;;;;;15.25;14.27;;;;;;;23.84;70.72;101088.84;5016234;28;103908;-50
2022/08/30 09:02:43;;;;;;;26.00;24.55;;;;;;;23.84;70.69;101089.69;5016486;28;101910;-50
2022/08/30 09:05:13;;;;;;;22.45;21.02;;;;;;;23.84;70.62;101088.84;5015302;28;102318;-50
2022/08/30 09:07:46;;;;;;;21.30;20.10;;;;;;;23.85;70.96;101084.94;5017420;28;102503;-50
2022/08/30 09:10:12;;;;;;;24.30;22.92;;;;;;;23.84;70.83;101084.13;5015553;28;103893;-50
2022/08/30 09:12:39;;;;;;;22.60;21.30;;;;;;;23.85;70.74;101082.16;5016714;28;102000;-50
2022/08/30 09:15:14;;;;;;;24.08;22.55;;;;;;;23.86;70.65;101086.56;5035681;27;102039;-51
2022/08/30 09:17:51;;;;;;;22.90;21.30;;;;;;;23.87;70.66;101083.41;5036613;27;102610;-50
2022/08/30 09:20:27;;;;;;;22.30;20.92;;;;;;;23.90;70.36;101081.91;5034923;27;104130;-50
2022/08/30 09:22:56;;;;;;;26.17;24.67;;;;;;;23.90;70.58;101087.47;5035852;27;102190;-50
2022/08/30 09:25:25;;;;;;;23.67;22.40;;;;;;;23.89;70.66;101080.28;5035402;27;102376;-51
2022/08/30 09:28:06;;;;;;;19.80;18.52;;;;;;;23.86;70.54;101087.34;5017410;27;102136;-50
2022/08/30 09:30:37;;;;;;;26.17;24.75;;;;;;;23.86;70.54;101087.34;5014873;28;103849;-50
2022/08/30 09:33:06;;;;;;;26.42;24.90;;;;;;;23.87;70.58;101082.59;5015745;28;102105;-50
2022/08/30 09:35:35;;;;;;;25.15;23.50;;;;;;;23.86;70.50;101075.44;5015099;28;102431;-50
2022/08/30 09:38:06;;;;;;;21.13;19.92;;;;;;;23.88;70.33;101084.25;5016452;28;102611;-50
2022/08/30 09:40:37;;;;;;;18.88;17.65;;;;;;;23.86;70.59;101081.00;5021574;28;103927;-50
2022/08/30 09:43:06;;;;;;;20.58;19.40;;;;;;;23.85;71.07;101076.59;5029874;27;102040;-50
2022/08/30 09:45:36;;;;;;;21.83;20.48;;;;;;;23.84;70.80;101066.63;5015736;27;102082;-50
2022/08/30 09:48:22;;;;;;;23.75;22.27;;;;;;;23.83;70.66;101065.03;5019608;28;102147;-50
2022/08/30 09:50:57;;;;;;;19.73;18.48;;;;;;;23.83;70.94;101070.56;5031083;27;104104;-50
2022/08/30 09:53:33;;;;;;;22.40;21.10;;;;;;;23.82;70.87;101071.75;5015905;28;102046;-50
2022/08/30 09:56:06;;;;;;;20.73;19.45;;;;;;;23.83;70.75;101076.13;5015128;28;102272;-50
2022/08/30 09:58:52;;;;;;;22.45;21.02;;;;;;;23.83;70.91;101065.03;5016309;28;102057;-50
2022/08/30 10:01:24;;;;;;;21.70;20.42;;;;;;;23.82;70.81;101068.97;5014708;28;107966;-50
2022/08/30 10:04:00;;;;;;;22.35;20.85;;;;;;;23.82;71.03;101063.41;5015297;28;102015;-50
2022/08/30 10:06:33;;;;;;;22.52;21.23;;;;;;;23.80;70.95;101060.16;5015195;28;101917;-50
2022/08/30 10:09:10;;;;;;;22.10;20.85;;;;;;;23.81;70.24;101061.81;5016665;28;102388;-51
2022/08/30 10:11:48;;;;;;;21.45;20.20;;;;;;;23.81;70.81;101054.25;5014133;28;104087;-50
2022/08/30 10:14:44;;;;;;;23.88;22.30;;;;;;;23.78;70.74;101052.19;5015710;28;102349;-51
2022/08/30 10:17:20;;;;;;;19.25;18.10;;;;;;;23.77;70.93;101050.59;5017217;28;102546;-50
2022/08/30 10:20:01;;;;;;;23.27;21.98;;;;;;;23.74;71.14;101046.53;5017981;28;102256;-50
2022/08/30 10:22:32;;;;;;;20.20;18.83;;;;;;;23.77;71.16;101052.56;5016306;28;103900;-50
2022/08/30 10:25:09;;;;;;;23.50;22.10;;;;;;;23.75;71.30;101050.13;5017480;28;102094;-51
2022/08/30 10:27:42;;;;;;;19.63;18.45;;;;;;;23.73;70.91;101049.69;5017321;28;102253;-50
2022/08/30 10:30:12;;;;;;;22.73;21.25;;;;;;;23.71;71.49;101052.78;5018010;28;102622;-50
2022/08/30 10:32:45;;;;;;;23.83;22.30;;;;;;;23.71;71.20;101047.22;5016568;28;104003;-50
2022/08/30 10:35:15;;;;;;;21.52;20.25;;;;;;;23.70;71.19;101050.38;5017563;28;102160;-50
2022/08/30 10:37:47;;;;;;;25.60;24.00;;;;;;;23.69;71.23;101041.22;5016641;28;102041;-50
2022/08/30 10:43:18;;;;;;;19.77;18.60;;;;;;;23.68;71.32;101036.81;5003087;28;103902;-51
2022/08/30 10:45:49;;;;;;;20.77;19.58;;;;;;;23.69;71.29;101040.41;4997497;28;102347;-52
2022/08/30 10:48:20;;;;;;;20.70;19.30;;;;;;;23.69;71.37;101032.91;4996301;28;102195;-50
2022/08/30 10:50:52;;;;;;;20.70;19.33;;;;;;;23.69;71.57;101035.69;4991737;28;102291;-50
2022/08/30 10:53:27;;;;;;;22.58;21.08;;;;;;;23.68;71.36;101025.69;4976036;28;103915;-50
2022/08/30 10:56:01;;;;;;;22.67;21.38;;;;;;;23.67;71.24;101024.09;4976981;28;102092;-50
2022/08/30 10:58:30;;;;;;;22.90;21.10;;;;;;;23.66;71.51;101022.44;4976251;28;102487;-50
2022/08/30 11:01:10;;;;;;;21.75;19.95;;;;;;;23.67;71.47;101012.97;4977772;28;102312;-50
2022/08/30 11:04:13;;;;;;;20.38;19.17;;;;;;;23.70;71.03;101017.84;4975687;28;104143;-50
2022/08/30 11:06:48;;;;;;;21.60;20.30;;;;;;;23.72;71.08;101009.13;4960525;28;102050;-50
2022/08/30 11:09:30;;;;;;;21.17;19.83;;;;;;;23.71;71.11;101013.09;4984111;28;102476;-50
2022/08/30 11:12:34;;;;;;;21.70;19.38;;;;;;;23.75;70.32;101014.00;4981720;28;102398;-50
2022/08/30 11:15:16;;;;;;;18.27;16.67;;;;;;;23.73;71.00;101019.91;4973942;28;103932;-51
2022/08/30 11:17:52;;;;;;;21.58;20.08;;;;;;;23.73;70.89;101024.66;4982709;28;102564;-51
2022/08/30 11:20:27;;;;;;;22.70;21.10;;;;;;;23.72;71.17;101036.91;4983140;28;102159;-51
2022/08/30 11:23:27;;;;;;;20.40;18.80;;;;;;;23.74;70.78;101031.84;4980493;28;102212;-50
2022/08/30 11:25:54;;;;;;;23.05;20.55;;;;;;;23.74;70.56;101051.28;4986249;28;108074;-50
2022/08/30 11:28:58;;;;;;;22.37;20.73;;;;;;;23.78;70.41;101048.59;4978956;28;102526;-52
2022/08/30 11:31:49;;;;;;;21.15;19.15;;;;;;;23.76;70.49;101042.56;4974595;28;102346;-50
2022/08/30 11:34:54;;;;;;;20.38;18.45;;;;;;;23.72;71.25;101025.81;4964408;28;104014;-50